sensor_id;sensor_type;location;lat;lon;timestamp;P1;durP1;ratioP1;P2;durP2;ratioP2
31618;SDS011;18230;51.502;7.108;2023-05-07T00:02:10;16.25;;;11.85;;
31618;SDS011;18230;51.502;7.108;2023-05-07T00:07:11;12.93;;;10.18;;
31618;SDS011;18230;51.502;7.108;2023-05-07T00:12:12;14.05;;;9.60;;
31618;SDS011;18230;51.502;7.108;2023-05-07T00:17:13;16.08;;;11.85;;
31618;SDS011;18230;51.502;7.108;2023-05-07T00:22:13;19.98;;;15.00;;
31618;SDS011;18230;51.502;7.108;2023-05-07T00:27:14;18.20;;;12.77;;
31618;SDS011;18230;51.502;7.108;2023-05-07T00:32:15;20.73;;;15.02;;
31618;SDS011;18230;51.502;7.108;2023-05-07T00:37:16;18.58;;;13.50;;
31618;SDS011;18230;51.502;7.108;2023-05-07T00:42:17;20.00;;;14.93;;
31618;SDS011;18230;51.502;7.108;2023-05-07T00:47:18;19.02;;;14.70;;
31618;SDS011;18230;51.502;7.108;2023-05-07T00:52:19;21.85;;;16.73;;
31618;SDS011;18230;51.502;7.108;2023-05-07T00:57:25;23.45;;;17.02;;
31618;SDS011;18230;51.502;7.108;2023-05-07T01:02:25;20.83;;;16.42;;
31618;SDS011;18230;51.502;7.108;2023-05-07T01:07:26;23.20;;;16.20;;
31618;SDS011;18230;51.502;7.108;2023-05-07T01:12:28;22.35;;;16.23;;
31618;SDS011;18230;51.502;7.108;2023-05-07T01:17:29;23.23;;;17.40;;
31618;SDS011;18230;51.502;7.108;2023-05-07T01:22:35;26.48;;;19.52;;
31618;SDS011;18230;51.502;7.108;2023-05-07T01:27:37;24.92;;;19.40;;
31618;SDS011;18230;51.502;7.108;2023-05-07T01:38:03;23.63;;;20.30;;
31618;SDS011;18230;51.502;7.108;2023-05-07T01:43:06;26.80;;;21.00;;
31618;SDS011;18230;51.502;7.108;2023-05-07T01:48:07;31.27;;;20.83;;
31618;SDS011;18230;51.502;7.108;2023-05-07T01:53:10;22.77;;;19.75;;
31618;SDS011;18230;51.502;7.108;2023-05-07T01:58:10;31.90;;;22.42;;
31618;SDS011;18230;51.502;7.108;2023-05-07T02:03:11;27.67;;;22.58;;
31618;SDS011;18230;51.502;7.108;2023-05-07T02:08:12;31.90;;;23.05;;
31618;SDS011;18230;51.502;7.108;2023-05-07T02:13:13;25.75;;;21.42;;
31618;SDS011;18230;51.502;7.108;2023-05-07T02:18:13;26.35;;;20.95;;
31618;SDS011;18230;51.502;7.108;2023-05-07T02:23:14;34.83;;;22.73;;
31618;SDS011;18230;51.502;7.108;2023-05-07T02:28:15;32.40;;;23.75;;
31618;SDS011;18230;51.502;7.108;2023-05-07T02:33:15;29.02;;;24.75;;
31618;SDS011;18230;51.502;7.108;2023-05-07T02:38:16;26.88;;;22.73;;
31618;SDS011;18230;51.502;7.108;2023-05-07T02:43:17;26.42;;;22.60;;
31618;SDS011;18230;51.502;7.108;2023-05-07T02:48:18;30.88;;;24.73;;
31618;SDS011;18230;51.502;7.108;2023-05-07T02:53:18;30.00;;;24.20;;
31618;SDS011;18230;51.502;7.108;2023-05-07T02:58:19;28.60;;;24.25;;
31618;SDS011;18230;51.502;7.108;2023-05-07T03:03:20;27.85;;;24.67;;
31618;SDS011;18230;51.502;7.108;2023-05-07T03:08:21;31.13;;;25.40;;
31618;SDS011;18230;51.502;7.108;2023-05-07T03:13:22;34.67;;;27.23;;
31618;SDS011;18230;51.502;7.108;2023-05-07T03:18:23;37.13;;;29.92;;
31618;SDS011;18230;51.502;7.108;2023-05-07T03:23:23;37.35;;;28.58;;
31618;SDS011;18230;51.502;7.108;2023-05-07T03:28:24;41.38;;;29.15;;
31618;SDS011;18230;51.502;7.108;2023-05-07T03:33:25;35.92;;;28.23;;
31618;SDS011;18230;51.502;7.108;2023-05-07T03:38:27;39.08;;;30.88;;
31618;SDS011;18230;51.502;7.108;2023-05-07T03:43:28;42.13;;;33.50;;
31618;SDS011;18230;51.502;7.108;2023-05-07T03:48:28;40.53;;;32.80;;
31618;SDS011;18230;51.502;7.108;2023-05-07T03:53:29;40.25;;;31.63;;
31618;SDS011;18230;51.502;7.108;2023-05-07T03:58:30;44.83;;;33.30;;
31618;SDS011;18230;51.502;7.108;2023-05-07T04:03:30;44.25;;;32.88;;
31618;SDS011;18230;51.502;7.108;2023-05-07T04:08:31;47.75;;;33.63;;
31618;SDS011;18230;51.502;7.108;2023-05-07T04:13:32;51.30;;;35.67;;
31618;SDS011;18230;51.502;7.108;2023-05-07T04:18:33;50.80;;;35.75;;
31618;SDS011;18230;51.502;7.108;2023-05-07T04:23:33;54.70;;;37.60;;
31618;SDS011;18230;51.502;7.108;2023-05-07T04:28:34;48.97;;;34.72;;
31618;SDS011;18230;51.502;7.108;2023-05-07T04:33:35;56.75;;;37.97;;
31618;SDS011;18230;51.502;7.108;2023-05-07T04:38:36;51.80;;;34.03;;
31618;SDS011;18230;51.502;7.108;2023-05-07T04:43:37;49.13;;;33.80;;
31618;SDS011;18230;51.502;7.108;2023-05-07T04:48:38;45.08;;;31.67;;
31618;SDS011;18230;51.502;7.108;2023-05-07T04:53:38;46.25;;;32.50;;
31618;SDS011;18230;51.502;7.108;2023-05-07T04:58:39;41.15;;;30.20;;
31618;SDS011;18230;51.502;7.108;2023-05-07T05:03:40;38.60;;;29.48;;
31618;SDS011;18230;51.502;7.108;2023-05-07T05:08:41;33.50;;;26.77;;
31618;SDS011;18230;51.502;7.108;2023-05-07T05:13:42;30.10;;;24.05;;
31618;SDS011;18230;51.502;7.108;2023-05-07T05:18:42;29.20;;;23.92;;
31618;SDS011;18230;51.502;7.108;2023-05-07T05:23:43;30.10;;;21.88;;
31618;SDS011;18230;51.502;7.108;2023-05-07T05:28:44;26.38;;;20.25;;
31618;SDS011;18230;51.502;7.108;2023-05-07T05:33:45;25.90;;;20.02;;
31618;SDS011;18230;51.502;7.108;2023-05-07T05:38:45;23.88;;;18.67;;
31618;SDS011;18230;51.502;7.108;2023-05-07T05:43:46;23.35;;;17.27;;
31618;SDS011;18230;51.502;7.108;2023-05-07T05:48:47;19.80;;;16.08;;
31618;SDS011;18230;51.502;7.108;2023-05-07T05:53:47;21.10;;;14.95;;
31618;SDS011;18230;51.502;7.108;2023-05-07T05:58:48;19.00;;;12.95;;
31618;SDS011;18230;51.502;7.108;2023-05-07T06:03:49;14.88;;;12.15;;
31618;SDS011;18230;51.502;7.108;2023-05-07T06:08:50;17.08;;;10.82;;
31618;SDS011;18230;51.502;7.108;2023-05-07T06:13:50;13.50;;;9.45;;
31618;SDS011;18230;51.502;7.108;2023-05-07T06:18:51;11.50;;;8.25;;
31618;SDS011;18230;51.502;7.108;2023-05-07T06:23:52;11.35;;;7.38;;
31618;SDS011;18230;51.502;7.108;2023-05-07T06:28:54;8.00;;;6.07;;
31618;SDS011;18230;51.502;7.108;2023-05-07T06:33:55;8.02;;;5.43;;
31618;SDS011;18230;51.502;7.108;2023-05-07T06:38:56;11.88;;;6.07;;
31618;SDS011;18230;51.502;7.108;2023-05-07T06:43:56;8.60;;;5.35;;
31618;SDS011;18230;51.502;7.108;2023-05-07T06:48:58;9.10;;;6.28;;
31618;SDS011;18230;51.502;7.108;2023-05-07T06:53:59;9.15;;;6.07;;
31618;SDS011;18230;51.502;7.108;2023-05-07T06:59:01;10.82;;;7.32;;
31618;SDS011;18230;51.502;7.108;2023-05-07T07:04:02;11.10;;;6.47;;
31618;SDS011;18230;51.502;7.108;2023-05-07T07:09:03;8.35;;;6.22;;
31618;SDS011;18230;51.502;7.108;2023-05-07T07:14:04;10.25;;;6.18;;
31618;SDS011;18230;51.502;7.108;2023-05-07T07:19:05;9.18;;;6.05;;
31618;SDS011;18230;51.502;7.108;2023-05-07T07:24:06;17.38;;;5.60;;
31618;SDS011;18230;51.502;7.108;2023-05-07T07:29:06;9.30;;;5.88;;
31618;SDS011;18230;51.502;7.108;2023-05-07T07:34:07;8.32;;;5.55;;
31618;SDS011;18230;51.502;7.108;2023-05-07T07:39:08;9.05;;;5.28;;
31618;SDS011;18230;51.502;7.108;2023-05-07T07:44:09;8.63;;;5.45;;
31618;SDS011;18230;51.502;7.108;2023-05-07T07:49:12;7.80;;;5.25;;
31618;SDS011;18230;51.502;7.108;2023-05-07T07:54:14;7.97;;;4.90;;
31618;SDS011;18230;51.502;7.108;2023-05-07T07:59:14;8.18;;;4.45;;
31618;SDS011;18230;51.502;7.108;2023-05-07T08:04:18;7.28;;;4.43;;
31618;SDS011;18230;51.502;7.108;2023-05-07T08:09:19;9.38;;;4.47;;
31618;SDS011;18230;51.502;7.108;2023-05-07T08:14:20;6.25;;;4.00;;
31618;SDS011;18230;51.502;7.108;2023-05-07T08:19:21;7.53;;;4.32;;
31618;SDS011;18230;51.502;7.108;2023-05-07T08:24:22;13.38;;;7.45;;
31618;SDS011;18230;51.502;7.108;2023-05-07T08:29:22;7.75;;;5.05;;
31618;SDS011;18230;51.502;7.108;2023-05-07T08:34:23;5.95;;;4.25;;
31618;SDS011;18230;51.502;7.108;2023-05-07T08:39:24;6.13;;;4.57;;
31618;SDS011;18230;51.502;7.108;2023-05-07T08:44:26;7.50;;;4.10;;
31618;SDS011;18230;51.502;7.108;2023-05-07T08:49:30;10.07;;;4.38;;
31618;SDS011;18230;51.502;7.108;2023-05-07T08:54:31;5.93;;;4.28;;
31618;SDS011;18230;51.502;7.108;2023-05-07T08:59:32;6.60;;;4.85;;
31618;SDS011;18230;51.502;7.108;2023-05-07T09:04:33;7.10;;;4.22;;
31618;SDS011;18230;51.502;7.108;2023-05-07T09:09:33;7.70;;;4.78;;
31618;SDS011;18230;51.502;7.108;2023-05-07T09:14:34;7.65;;;5.45;;
31618;SDS011;18230;51.502;7.108;2023-05-07T09:19:35;8.32;;;5.50;;
31618;SDS011;18230;51.502;7.108;2023-05-07T09:24:36;8.25;;;6.38;;
31618;SDS011;18230;51.502;7.108;2023-05-07T09:29:38;25.00;;;15.55;;
31618;SDS011;18230;51.502;7.108;2023-05-07T09:34:38;11.48;;;5.95;;
31618;SDS011;18230;51.502;7.108;2023-05-07T09:44:41;13.60;;;8.25;;
31618;SDS011;18230;51.502;7.108;2023-05-07T09:49:43;10.57;;;6.70;;
31618;SDS011;18230;51.502;7.108;2023-05-07T09:54:48;11.35;;;7.13;;
31618;SDS011;18230;51.502;7.108;2023-05-07T09:59:50;14.68;;;10.05;;
31618;SDS011;18230;51.502;7.108;2023-05-07T10:04:54;9.18;;;7.55;;
31618;SDS011;18230;51.502;7.108;2023-05-07T10:09:55;9.85;;;5.63;;
31618;SDS011;18230;51.502;7.108;2023-05-07T10:14:57;8.30;;;6.18;;
31618;SDS011;18230;51.502;7.108;2023-05-07T10:19:58;9.90;;;6.65;;
31618;SDS011;18230;51.502;7.108;2023-05-07T10:24:59;7.95;;;4.47;;
31618;SDS011;18230;51.502;7.108;2023-05-07T10:35:10;10.57;;;6.18;;
31618;SDS011;18230;51.502;7.108;2023-05-07T10:40:23;8.48;;;4.82;;
31618;SDS011;18230;51.502;7.108;2023-05-07T10:45:24;8.18;;;5.22;;
31618;SDS011;18230;51.502;7.108;2023-05-07T10:50:25;6.30;;;4.40;;
31618;SDS011;18230;51.502;7.108;2023-05-07T10:55:26;6.75;;;5.13;;
31618;SDS011;18230;51.502;7.108;2023-05-07T11:05:28;6.63;;;4.88;;
31618;SDS011;18230;51.502;7.108;2023-05-07T11:10:52;7.65;;;5.50;;
31618;SDS011;18230;51.502;7.108;2023-05-07T11:15:57;6.30;;;3.80;;
31618;SDS011;18230;51.502;7.108;2023-05-07T11:20:58;9.25;;;6.80;;
31618;SDS011;18230;51.502;7.108;2023-05-07T11:26:00;7.53;;;5.05;;
31618;SDS011;18230;51.502;7.108;2023-05-07T11:31:00;5.18;;;2.90;;
31618;SDS011;18230;51.502;7.108;2023-05-07T11:36:02;4.55;;;2.90;;
31618;SDS011;18230;51.502;7.108;2023-05-07T11:41:04;4.85;;;3.70;;
31618;SDS011;18230;51.502;7.108;2023-05-07T11:46:07;5.78;;;3.92;;
31618;SDS011;18230;51.502;7.108;2023-05-07T11:51:12;4.50;;;3.63;;
31618;SDS011;18230;51.502;7.108;2023-05-07T11:56:14;4.10;;;2.50;;
31618;SDS011;18230;51.502;7.108;2023-05-07T12:01:16;5.82;;;2.53;;
31618;SDS011;18230;51.502;7.108;2023-05-07T12:06:17;6.15;;;4.25;;
31618;SDS011;18230;51.502;7.108;2023-05-07T12:11:24;5.72;;;3.83;;
31618;SDS011;18230;51.502;7.108;2023-05-07T12:16:26;8.38;;;5.10;;
31618;SDS011;18230;51.502;7.108;2023-05-07T12:21:27;7.10;;;4.10;;
31618;SDS011;18230;51.502;7.108;2023-05-07T12:26:28;7.45;;;4.50;;
31618;SDS011;18230;51.502;7.108;2023-05-07T12:31:29;7.47;;;4.03;;
31618;SDS011;18230;51.502;7.108;2023-05-07T12:36:37;4.93;;;3.95;;
31618;SDS011;18230;51.502;7.108;2023-05-07T12:46:54;9.77;;;5.18;;
31618;SDS011;18230;51.502;7.108;2023-05-07T12:51:55;7.28;;;5.13;;
31618;SDS011;18230;51.502;7.108;2023-05-07T12:57:00;10.70;;;4.70;;
31618;SDS011;18230;51.502;7.108;2023-05-07T13:02:10;6.75;;;4.50;;
31618;SDS011;18230;51.502;7.108;2023-05-07T13:07:11;6.93;;;4.15;;
31618;SDS011;18230;51.502;7.108;2023-05-07T13:12:11;7.78;;;3.30;;
31618;SDS011;18230;51.502;7.108;2023-05-07T13:17:12;7.25;;;3.50;;
31618;SDS011;18230;51.502;7.108;2023-05-07T13:22:13;5.28;;;3.40;;
31618;SDS011;18230;51.502;7.108;2023-05-07T13:27:14;7.07;;;3.63;;
31618;SDS011;18230;51.502;7.108;2023-05-07T13:32:15;4.97;;;3.70;;
31618;SDS011;18230;51.502;7.108;2023-05-07T13:37:16;7.13;;;4.55;;
31618;SDS011;18230;51.502;7.108;2023-05-07T13:42:16;10.95;;;5.70;;
31618;SDS011;18230;51.502;7.108;2023-05-07T13:47:17;7.88;;;5.07;;
31618;SDS011;18230;51.502;7.108;2023-05-07T13:52:18;9.07;;;6.47;;
31618;SDS011;18230;51.502;7.108;2023-05-07T13:57:20;10.23;;;7.55;;
31618;SDS011;18230;51.502;7.108;2023-05-07T14:02:20;20.00;;;12.63;;
31618;SDS011;18230;51.502;7.108;2023-05-07T14:07:21;11.77;;;5.72;;
31618;SDS011;18230;51.502;7.108;2023-05-07T14:12:22;9.75;;;5.03;;
31618;SDS011;18230;51.502;7.108;2023-05-07T14:17:23;6.90;;;4.50;;
31618;SDS011;18230;51.502;7.108;2023-05-07T14:22:26;7.20;;;4.80;;
31618;SDS011;18230;51.502;7.108;2023-05-07T14:27:27;5.43;;;4.55;;
31618;SDS011;18230;51.502;7.108;2023-05-07T14:32:27;8.90;;;5.63;;
31618;SDS011;18230;51.502;7.108;2023-05-07T14:37:28;12.07;;;5.63;;
31618;SDS011;18230;51.502;7.108;2023-05-07T14:42:29;17.85;;;13.23;;
31618;SDS011;18230;51.502;7.108;2023-05-07T14:47:30;10.25;;;7.63;;
31618;SDS011;18230;51.502;7.108;2023-05-07T14:52:31;10.35;;;7.50;;
31618;SDS011;18230;51.502;7.108;2023-05-07T14:57:31;9.05;;;6.90;;
31618;SDS011;18230;51.502;7.108;2023-05-07T15:02:35;10.73;;;8.50;;
31618;SDS011;18230;51.502;7.108;2023-05-07T15:07:35;11.40;;;7.78;;
31618;SDS011;18230;51.502;7.108;2023-05-07T15:12:36;14.35;;;10.00;;
31618;SDS011;18230;51.502;7.108;2023-05-07T15:17:37;15.10;;;12.20;;
31618;SDS011;18230;51.502;7.108;2023-05-07T15:22:38;12.18;;;8.57;;
31618;SDS011;18230;51.502;7.108;2023-05-07T15:27:39;9.68;;;7.93;;
31618;SDS011;18230;51.502;7.108;2023-05-07T15:32:40;13.30;;;9.50;;
31618;SDS011;18230;51.502;7.108;2023-05-07T15:37:42;10.27;;;7.38;;
31618;SDS011;18230;51.502;7.108;2023-05-07T15:42:44;11.05;;;7.88;;
31618;SDS011;18230;51.502;7.108;2023-05-07T15:47:45;11.57;;;9.00;;
31618;SDS011;18230;51.502;7.108;2023-05-07T15:52:46;10.55;;;9.10;;
31618;SDS011;18230;51.502;7.108;2023-05-07T15:57:46;10.70;;;8.32;;
31618;SDS011;18230;51.502;7.108;2023-05-07T16:02:47;11.75;;;8.07;;
31618;SDS011;18230;51.502;7.108;2023-05-07T16:07:48;12.52;;;9.15;;
31618;SDS011;18230;51.502;7.108;2023-05-07T16:12:49;15.88;;;13.15;;
31618;SDS011;18230;51.502;7.108;2023-05-07T16:17:50;11.98;;;8.75;;
31618;SDS011;18230;51.502;7.108;2023-05-07T16:22:51;9.77;;;6.45;;
31618;SDS011;18230;51.502;7.108;2023-05-07T16:27:52;10.23;;;7.53;;
31618;SDS011;18230;51.502;7.108;2023-05-07T16:32:53;8.23;;;5.60;;
31618;SDS011;18230;51.502;7.108;2023-05-07T16:37:54;14.63;;;8.48;;
31618;SDS011;18230;51.502;7.108;2023-05-07T16:42:55;11.23;;;6.18;;
31618;SDS011;18230;51.502;7.108;2023-05-07T16:47:56;8.77;;;4.65;;
31618;SDS011;18230;51.502;7.108;2023-05-07T16:52:57;6.75;;;4.45;;
31618;SDS011;18230;51.502;7.108;2023-05-07T16:57:58;4.50;;;3.35;;
31618;SDS011;18230;51.502;7.108;2023-05-07T17:02:59;6.68;;;2.90;;
31618;SDS011;18230;51.502;7.108;2023-05-07T17:07:59;4.25;;;3.17;;
31618;SDS011;18230;51.502;7.108;2023-05-07T17:13:00;6.10;;;2.92;;
31618;SDS011;18230;51.502;7.108;2023-05-07T17:18:01;5.30;;;3.28;;
31618;SDS011;18230;51.502;7.108;2023-05-07T17:23:02;7.15;;;2.97;;
31618;SDS011;18230;51.502;7.108;2023-05-07T17:28:02;3.30;;;3.00;;
31618;SDS011;18230;51.502;7.108;2023-05-07T17:33:04;4.28;;;2.95;;
31618;SDS011;18230;51.502;7.108;2023-05-07T17:38:05;11.45;;;8.05;;
31618;SDS011;18230;51.502;7.108;2023-05-07T17:43:06;7.50;;;4.72;;
31618;SDS011;18230;51.502;7.108;2023-05-07T17:48:06;7.68;;;3.30;;
31618;SDS011;18230;51.502;7.108;2023-05-07T17:53:07;4.43;;;3.50;;
31618;SDS011;18230;51.502;7.108;2023-05-07T17:58:09;2.58;;;2.28;;
31618;SDS011;18230;51.502;7.108;2023-05-07T18:03:13;3.90;;;2.80;;
31618;SDS011;18230;51.502;7.108;2023-05-07T18:08:14;3.08;;;2.28;;
31618;SDS011;18230;51.502;7.108;2023-05-07T18:13:15;3.47;;;3.00;;
31618;SDS011;18230;51.502;7.108;2023-05-07T18:18:16;6.90;;;4.50;;
31618;SDS011;18230;51.502;7.108;2023-05-07T18:23:18;5.30;;;3.97;;
31618;SDS011;18230;51.502;7.108;2023-05-07T18:28:18;3.78;;;2.75;;
31618;SDS011;18230;51.502;7.108;2023-05-07T18:33:19;5.55;;;3.25;;
31618;SDS011;18230;51.502;7.108;2023-05-07T18:38:20;4.22;;;2.55;;
31618;SDS011;18230;51.502;7.108;2023-05-07T18:43:21;4.13;;;2.90;;
31618;SDS011;18230;51.502;7.108;2023-05-07T18:48:21;4.28;;;2.92;;
31618;SDS011;18230;51.502;7.108;2023-05-07T18:53:22;4.95;;;3.08;;
31618;SDS011;18230;51.502;7.108;2023-05-07T18:58:23;3.97;;;3.00;;
31618;SDS011;18230;51.502;7.108;2023-05-07T19:03:24;4.75;;;3.20;;
31618;SDS011;18230;51.502;7.108;2023-05-07T19:08:24;9.27;;;3.85;;
31618;SDS011;18230;51.502;7.108;2023-05-07T19:13:25;5.32;;;3.70;;
31618;SDS011;18230;51.502;7.108;2023-05-07T19:18:26;5.95;;;3.20;;
31618;SDS011;18230;51.502;7.108;2023-05-07T19:23:28;4.18;;;3.70;;
31618;SDS011;18230;51.502;7.108;2023-05-07T19:28:29;7.00;;;3.78;;
31618;SDS011;18230;51.502;7.108;2023-05-07T19:33:30;7.32;;;4.38;;
31618;SDS011;18230;51.502;7.108;2023-05-07T19:38:31;7.40;;;4.00;;
31618;SDS011;18230;51.502;7.108;2023-05-07T19:43:32;5.13;;;3.88;;
31618;SDS011;18230;51.502;7.108;2023-05-07T19:48:37;4.53;;;3.30;;
31618;SDS011;18230;51.502;7.108;2023-05-07T19:53:38;6.03;;;3.78;;
31618;SDS011;18230;51.502;7.108;2023-05-07T19:58:39;5.68;;;3.85;;
31618;SDS011;18230;51.502;7.108;2023-05-07T20:03:40;5.80;;;4.20;;
31618;SDS011;18230;51.502;7.108;2023-05-07T20:08:40;7.10;;;4.85;;
31618;SDS011;18230;51.502;7.108;2023-05-07T20:13:43;9.73;;;4.82;;
31618;SDS011;18230;51.502;7.108;2023-05-07T20:18:44;8.32;;;5.72;;
31618;SDS011;18230;51.502;7.108;2023-05-07T20:23:45;7.20;;;5.97;;
31618;SDS011;18230;51.502;7.108;2023-05-07T20:28:46;8.75;;;5.50;;
31618;SDS011;18230;51.502;7.108;2023-05-07T20:33:47;9.63;;;6.57;;
31618;SDS011;18230;51.502;7.108;2023-05-07T20:38:48;10.40;;;7.18;;
31618;SDS011;18230;51.502;7.108;2023-05-07T20:43:48;13.85;;;8.57;;
31618;SDS011;18230;51.502;7.108;2023-05-07T20:48:49;11.73;;;8.70;;
31618;SDS011;18230;51.502;7.108;2023-05-07T20:53:50;11.90;;;9.85;;
31618;SDS011;18230;51.502;7.108;2023-05-07T20:58:51;18.25;;;10.40;;
31618;SDS011;18230;51.502;7.108;2023-05-07T21:03:51;14.77;;;10.38;;
31618;SDS011;18230;51.502;7.108;2023-05-07T21:08:53;16.98;;;11.82;;
31618;SDS011;18230;51.502;7.108;2023-05-07T21:13:53;13.40;;;10.70;;
31618;SDS011;18230;51.502;7.108;2023-05-07T21:18:54;15.77;;;11.88;;
31618;SDS011;18230;51.502;7.108;2023-05-07T21:23:55;18.65;;;13.25;;
31618;SDS011;18230;51.502;7.108;2023-05-07T21:28:56;17.02;;;13.68;;
31618;SDS011;18230;51.502;7.108;2023-05-07T21:33:57;17.80;;;13.80;;
31618;SDS011;18230;51.502;7.108;2023-05-07T21:38:58;19.85;;;14.45;;
31618;SDS011;18230;51.502;7.108;2023-05-07T21:43:58;19.77;;;14.95;;
31618;SDS011;18230;51.502;7.108;2023-05-07T21:48:59;19.05;;;14.98;;
31618;SDS011;18230;51.502;7.108;2023-05-07T21:54:00;20.95;;;16.35;;
31618;SDS011;18230;51.502;7.108;2023-05-07T21:59:01;21.55;;;15.63;;
31618;SDS011;18230;51.502;7.108;2023-05-07T22:04:02;22.17;;;16.27;;
31618;SDS011;18230;51.502;7.108;2023-05-07T22:09:03;21.08;;;15.98;;
31618;SDS011;18230;51.502;7.108;2023-05-07T22:14:03;21.77;;;16.17;;
31618;SDS011;18230;51.502;7.108;2023-05-07T22:19:05;25.48;;;17.25;;
31618;SDS011;18230;51.502;7.108;2023-05-07T22:24:06;21.45;;;16.55;;
31618;SDS011;18230;51.502;7.108;2023-05-07T22:29:06;21.13;;;16.63;;
31618;SDS011;18230;51.502;7.108;2023-05-07T22:34:07;23.60;;;17.00;;
31618;SDS011;18230;51.502;7.108;2023-05-07T22:39:08;20.50;;;16.05;;
31618;SDS011;18230;51.502;7.108;2023-05-07T22:44:09;21.55;;;17.10;;
31618;SDS011;18230;51.502;7.108;2023-05-07T22:49:10;24.50;;;17.45;;
31618;SDS011;18230;51.502;7.108;2023-05-07T22:54:11;20.23;;;16.75;;
31618;SDS011;18230;51.502;7.108;2023-05-07T22:59:11;21.77;;;17.65;;
31618;SDS011;18230;51.502;7.108;2023-05-07T23:04:12;20.77;;;16.63;;
31618;SDS011;18230;51.502;7.108;2023-05-07T23:09:13;23.58;;;17.65;;
31618;SDS011;18230;51.502;7.108;2023-05-07T23:14:14;25.73;;;17.17;;
31618;SDS011;18230;51.502;7.108;2023-05-07T23:19:15;23.17;;;18.15;;
31618;SDS011;18230;51.502;7.108;2023-05-07T23:24:16;21.65;;;17.33;;
31618;SDS011;18230;51.502;7.108;2023-05-07T23:29:16;25.60;;;18.67;;
31618;SDS011;18230;51.502;7.108;2023-05-07T23:34:17;21.92;;;19.13;;
31618;SDS011;18230;51.502;7.108;2023-05-07T23:39:22;24.38;;;18.85;;
31618;SDS011;18230;51.502;7.108;2023-05-07T23:44:23;26.77;;;19.40;;
31618;SDS011;18230;51.502;7.108;2023-05-07T23:49:25;24.92;;;19.20;;
31618;SDS011;18230;51.502;7.108;2023-05-07T23:54:25;24.02;;;19.38;;
31618;SDS011;18230;51.502;7.108;2023-05-07T23:59:26;24.13;;;19.15;;
